This is the latest recevied weather packets stored in our database for station/object KE6LRO. If no packets are shown the sender has not sent any weather packets the latest 10 day(s).
| Time | Temp. | Humidity | Pressure | Rain* | Wind** | Luminosity | Snow |
|---|---|---|---|---|---|---|---|
| 1778093245 | 17.78° C | 38% | 1018.6 hPa | 0 mm | - | 760 W/m² | - |
| 1778092942 | 17.78° C | 39% | 1018.5 hPa | 0 mm | - | 759 W/m² | - |
| 1778092639 | 16.67° C | 39% | 1018.7 hPa | 0 mm | - | 782 W/m² | - |
| 1778092335 | 16.67° C | 40% | 1018.6 hPa | 0 mm | - | 804 W/m² | - |
| 1778092032 | 16.67° C | 39% | 1018.6 hPa | 0 mm | - | 470 W/m² | - |
| 1778091729 | 16.67° C | 39% | 1018.8 hPa | 0 mm | - | 809 W/m² | - |
| 1778091427 | 15.56° C | 40% | 1018.9 hPa | 0 mm | - | 782 W/m² | - |
| 1778091124 | 15° C | 44% | 1019.2 hPa | 0 mm | - | 810 W/m² | - |
| 1778090821 | 15.56° C | 39% | 1018.9 hPa | 0 mm | - | 723 W/m² | - |
| 1778090517 | 15° C | 41% | 1019.2 hPa | 0 mm | - | 718 W/m² | - |
| 1778090214 | 15° C | 42% | 1019.4 hPa | 0 mm | - | 707 W/m² | - |
| 1778089911 | 14.44° C | 42% | 1019.5 hPa | 0 mm | - | 683 W/m² | - |
| 1778089609 | 14.44° C | 41% | 1019.4 hPa | 0 mm | - | 611 W/m² | - |
| 1778089305 | 13.89° C | 43% | 1019.5 hPa | 0 mm | - | 726 W/m² | - |
| 1778089003 | 14.44° C | 42% | 1019.6 hPa | 0 mm | - | 198 W/m² | - |
| 1778088700 | 12.78° C | 43% | 1019.7 hPa | 0 mm | - | 731 W/m² | - |
| 1778088397 | 13.89° C | 43% | 1019.7 hPa | 0 mm | - | 461 W/m² | - |
| 1778088093 | 13.89° C | 43% | 1019.7 hPa | 0 mm | - | 712 W/m² | - |
| 1778087791 | 12.78° C | 43% | 1020.1 hPa | 0 mm | - | 658 W/m² | - |
| 1778087488 | 13.33° C | 42% | 1020.2 hPa | 0 mm | - | 653 W/m² | - |
| 1778087186 | 12.78° C | 45% | 1020.4 hPa | 0 mm | - | 634 W/m² | - |
| 1778086883 | 12.78° C | 43% | 1020.3 hPa | 0 mm | - | 629 W/m² | - |
| 1778086581 | 12.22° C | 43% | 1020.4 hPa | 0 mm | - | 615 W/m² | - |
| 1778086277 | 11.67° C | 45% | 1020.4 hPa | 0 mm | - | 608 W/m² | - |
| 1778085975 | 11.67° C | 45% | 1020.5 hPa | 0 mm | - | 598 W/m² | - |
* Rain latest hour (hover to see other rain measurements)
** Current wind speed in m/s (hover to see current wind gust speed)